Time;durP1;ratioP1;P1;durP2;ratioP2;P2;SDS_P1;SDS_P2;PMS_P1;PMS_P2;Temp;Humidity;BMP_temperature;BMP_pressure;BME280_temperature;BME280_humidity;BME280_pressure;Samples;Min_cycle;Max_cycle;Signal;HPM_P1;HPM_P2
2023/11/21 00:00:45;;;;;;;1999.90;999.90;;;8.20;99.90;;;;;;5015924;28;20712;-71
2023/11/21 00:03:14;;;;;;;1999.90;999.90;;;8.20;99.90;;;;;;5015922;28;20432;-70
2023/11/21 00:05:41;;;;;;;1999.90;999.90;;;8.20;99.90;;;;;;5015779;28;20467;-71
2023/11/21 00:08:07;;;;;;;1999.90;999.90;;;8.20;99.90;;;;;;5016189;28;20477;-70
2023/11/21 00:10:33;;;;;;;1999.90;999.90;;;8.20;99.90;;;;;;5016067;28;20448;-71
2023/11/21 00:12:58;;;;;;;1999.90;999.90;;;8.20;99.90;;;;;;5015767;28;21212;-70
2023/11/21 00:15:24;;;;;;;1999.90;999.90;;;8.20;99.90;;;;;;5015672;28;20419;-71
2023/11/21 00:17:49;;;;;;;1999.90;999.90;;;8.20;99.90;;;;;;5016240;28;20169;-71
2023/11/21 00:20:15;;;;;;;1999.90;999.90;;;8.10;99.90;;;;;;5015817;28;20569;-71
2023/11/21 00:22:41;;;;;;;1999.90;999.90;;;8.20;99.90;;;;;;5015507;28;20240;-71
2023/11/21 00:25:08;;;;;;;1999.90;999.90;;;8.10;99.90;;;;;;5015641;28;20405;-71
2023/11/21 00:27:35;;;;;;;1999.90;999.90;;;8.20;99.90;;;;;;5014881;28;20169;-71
2023/11/21 00:30:01;;;;;;;1999.90;999.90;;;8.10;99.90;;;;;;5015526;28;20408;-71
2023/11/21 00:32:26;;;;;;;1999.90;999.90;;;8.30;99.90;;;;;;5016280;28;20465;-71
2023/11/21 00:34:52;;;;;;;1999.90;999.90;;;8.10;99.90;;;;;;5015882;28;20912;-71
2023/11/21 00:37:17;;;;;;;1999.90;999.90;;;8.10;99.90;;;;;;5015331;28;20176;-71
2023/11/21 00:39:43;;;;;;;1999.90;999.90;;;7.90;99.90;;;;;;5016194;28;20548;-71
2023/11/21 00:42:10;;;;;;;1999.90;999.90;;;8.10;99.90;;;;;;5015102;28;20200;-71
2023/11/21 00:44:38;;;;;;;1999.90;999.90;;;7.80;99.90;;;;;;5015086;28;20177;-71
2023/11/21 00:47:03;;;;;;;1999.90;999.90;;;8.20;99.90;;;;;;5015562;28;20450;-71
2023/11/21 00:49:29;;;;;;;1999.90;999.90;;;8.20;99.90;;;;;;5014977;28;20400;-71
2023/11/21 00:51:55;;;;;;;1999.90;999.90;;;8.20;99.90;;;;;;5014399;28;20193;-71
2023/11/21 00:54:20;;;;;;;1999.90;999.90;;;8.20;99.90;;;;;;5014738;28;20624;-71
2023/11/21 00:56:48;;;;;;;1999.90;999.90;;;8.30;99.90;;;;;;5015186;28;20427;-71
2023/11/21 00:59:13;;;;;;;1999.90;999.90;;;8.20;99.90;;;;;;5015216;28;20165;-70
2023/11/21 01:01:39;;;;;;;1999.90;999.90;;;8.20;99.90;;;;;;5015464;28;20950;-71
2023/11/21 01:04:06;;;;;;;1999.90;999.90;;;8.20;99.90;;;;;;5015423;28;20676;-71
2023/11/21 01:06:32;;;;;;;1999.90;999.90;;;8.20;99.90;;;;;;5015330;28;20157;-71
2023/11/21 01:08:58;;;;;;;1999.90;999.90;;;8.20;99.90;;;;;;5015758;28;20935;-71
2023/11/21 01:11:23;;;;;;;1999.90;999.90;;;8.20;99.90;;;;;;5014647;28;20421;-71
2023/11/21 01:13:49;;;;;;;1999.90;999.90;;;8.20;99.90;;;;;;5013283;28;20811;-71
2023/11/21 01:16:14;;;;;;;1999.90;999.90;;;8.30;99.90;;;;;;5013322;28;20223;-71
2023/11/21 01:18:40;;;;;;;1999.90;999.90;;;8.20;99.90;;;;;;5013397;28;20536;-71
2023/11/21 01:21:07;;;;;;;1999.90;999.90;;;8.30;99.90;;;;;;5013582;28;20245;-71
2023/11/21 01:23:33;;;;;;;1999.90;999.90;;;8.20;99.90;;;;;;5013274;28;20204;-71
2023/11/21 01:25:58;;;;;;;1999.90;999.90;;;8.20;99.90;;;;;;5013092;28;20412;-71
2023/11/21 01:28:24;;;;;;;1999.90;999.90;;;8.10;99.90;;;;;;5014008;28;20258;-71
2023/11/21 01:30:50;;;;;;;1999.90;999.90;;;8.10;99.90;;;;;;5013573;28;20577;-71
2023/11/21 01:33:15;;;;;;;1999.90;999.90;;;8.10;99.90;;;;;;5012168;28;20754;-71
2023/11/21 01:35:42;;;;;;;1999.90;999.90;;;8.10;99.90;;;;;;5011520;28;20408;-71
2023/11/21 01:38:08;;;;;;;1999.90;999.90;;;8.20;99.90;;;;;;5012144;28;20169;-71
2023/11/21 01:40:34;;;;;;;1999.90;999.90;;;8.20;99.90;;;;;;5011734;28;20964;-71
2023/11/21 01:43:00;;;;;;;1999.90;999.90;;;8.10;99.90;;;;;;5011707;28;20176;-71
2023/11/21 01:45:26;;;;;;;1999.90;999.90;;;8.10;99.90;;;;;;5011596;28;20749;-70
2023/11/21 01:47:52;;;;;;;1999.90;999.90;;;8.10;99.90;;;;;;5013117;28;20404;-71
2023/11/21 01:50:18;;;;;;;1999.90;999.90;;;8.10;99.90;;;;;;5015257;28;20202;-71
2023/11/21 01:52:48;;;;;;;1999.90;999.90;;;8.10;99.90;;;;;;5015207;28;20804;-71
2023/11/21 01:55:17;;;;;;;1999.90;999.90;;;8.10;99.90;;;;;;5014982;28;20401;-71
2023/11/21 01:57:43;;;;;;;1999.90;999.90;;;8.10;99.90;;;;;;5015085;28;20436;-71
2023/11/21 02:00:15;;;;;;;1999.90;999.90;;;8.10;99.90;;;;;;5014959;28;20438;-71
2023/11/21 02:02:47;;;;;;;1999.90;999.90;;;8.10;99.90;;;;;;5014990;28;20192;-71
2023/11/21 02:05:18;;;;;;;1999.90;999.90;;;8.20;99.90;;;;;;5014824;28;20424;-71
2023/11/21 02:07:44;;;;;;;1999.90;999.90;;;8.20;99.90;;;;;;5014961;28;20499;-71
2023/11/21 02:10:14;;;;;;;1999.90;999.90;;;8.20;99.90;;;;;;5014739;28;20449;-71
2023/11/21 02:12:41;;;;;;;1999.90;999.90;;;8.00;99.90;;;;;;5014955;28;20459;-71
2023/11/21 02:15:14;;;;;;;1999.90;999.90;;;8.00;99.90;;;;;;5014826;28;20826;-71
2023/11/21 02:17:43;;;;;;;1999.90;999.90;;;8.00;99.90;;;;;;5014691;28;20404;-71
2023/11/21 02:20:15;;;;;;;1999.90;999.90;;;8.30;99.90;;;;;;5014530;28;20408;-71
2023/11/21 02:22:41;;;;;;;1999.90;999.90;;;8.00;99.90;;;;;;5014464;28;20994;-71
2023/11/21 02:25:08;;;;;;;1999.90;999.90;;;8.00;99.90;;;;;;5014452;28;20432;-71
2023/11/21 02:27:33;;;;;;;1999.90;999.90;;;8.00;99.90;;;;;;5014758;28;20915;-71
2023/11/21 02:30:00;;;;;;;1999.90;999.90;;;8.00;99.90;;;;;;5014434;28;20404;-71
2023/11/21 02:32:26;;;;;;;1999.90;999.90;;;7.90;99.90;;;;;;5014458;28;20196;-71
2023/11/21 02:34:52;;;;;;;1999.90;999.90;;;7.90;99.90;;;;;;5014247;28;20908;-71
2023/11/21 02:37:17;;;;;;;1999.90;999.90;;;7.90;99.90;;;;;;5014347;28;20173;-71
2023/11/21 02:39:43;;;;;;;1999.90;999.90;;;7.90;99.90;;;;;;5014390;28;20607;-71
2023/11/21 02:42:08;;;;;;;1999.90;999.90;;;7.90;99.90;;;;;;5014288;28;20259;-71
2023/11/21 02:44:34;;;;;;;1999.90;999.90;;;7.90;99.90;;;;;;5014023;28;20202;-71
2023/11/21 02:47:00;;;;;;;1999.90;999.90;;;8.10;99.90;;;;;;5014173;28;20662;-71
2023/11/21 02:49:28;;;;;;;1999.90;999.90;;;8.10;99.90;;;;;;5014007;28;20775;-71
2023/11/21 02:51:54;;;;;;;1999.90;999.90;;;8.10;99.90;;;;;;5013883;28;20188;-71
2023/11/21 02:54:21;;;;;;;1999.90;999.90;;;8.10;99.90;;;;;;5014067;28;20407;-71
2023/11/21 02:56:48;;;;;;;1999.90;999.90;;;8.10;99.90;;;;;;5014045;28;20991;-71
2023/11/21 02:59:15;;;;;;;1999.90;999.90;;;8.10;99.90;;;;;;5013162;28;20439;-71
2023/11/21 03:01:41;;;;;;;1999.90;999.90;;;8.10;99.90;;;;;;5013668;28;20498;-71
2023/11/21 03:04:06;;;;;;;1999.90;999.90;;;8.10;99.90;;;;;;5013723;28;20415;-71
2023/11/21 03:06:32;;;;;;;1999.90;999.90;;;8.00;99.90;;;;;;5013502;28;20252;-71
2023/11/21 03:08:57;;;;;;;1999.90;999.90;;;8.00;99.90;;;;;;5013674;28;20645;-71
2023/11/21 03:11:23;;;;;;;1999.90;999.90;;;8.00;99.90;;;;;;5013535;28;20551;-71
2023/11/21 03:13:49;;;;;;;1999.90;999.90;;;7.90;99.90;;;;;;5013474;28;20260;-71
2023/11/21 03:16:16;;;;;;;1999.90;999.90;;;8.00;99.90;;;;;;5013412;28;20173;-71
2023/11/21 03:18:41;;;;;;;1999.90;999.90;;;7.90;99.90;;;;;;5013492;28;20412;-71
2023/11/21 03:21:11;;;;;;;1999.90;999.90;;;8.00;99.90;;;;;;5013342;28;20540;-71
2023/11/21 03:23:37;;;;;;;1999.90;999.90;;;8.00;99.90;;;;;;5013418;28;20278;-71
2023/11/21 03:26:03;;;;;;;1999.90;999.90;;;8.00;99.90;;;;;;5013279;28;20832;-70
2023/11/21 03:28:30;;;;;;;1999.90;999.90;;;8.00;99.90;;;;;;5013461;28;20417;-71
2023/11/21 03:30:56;;;;;;;1999.90;999.90;;;8.10;99.90;;;;;;5013914;28;20447;-70
2023/11/21 03:33:22;;;;;;;1999.90;999.90;;;8.10;99.90;;;;;;5015716;28;20437;-70
2023/11/21 03:35:48;;;;;;;1999.90;999.90;;;8.10;99.90;;;;;;5015027;28;20412;-70
2023/11/21 03:38:13;;;;;;;1999.90;999.90;;;8.10;99.90;;;;;;5014650;28;20416;-70
2023/11/21 03:40:40;;;;;;;1999.90;999.90;;;8.20;99.90;;;;;;5014309;28;20426;-70
2023/11/21 03:43:06;;;;;;;1999.90;999.90;;;8.30;99.90;;;;;;5014359;28;20184;-70
2023/11/21 03:45:32;;;;;;;1999.90;999.90;;;8.30;99.90;;;;;;5013269;28;20492;-71
2023/11/21 03:47:57;;;;;;;1999.90;999.90;;;8.30;99.90;;;;;;5013801;28;20503;-70
2023/11/21 03:50:23;;;;;;;1999.90;999.90;;;8.30;99.90;;;;;;5014115;28;20196;-71
2023/11/21 03:52:48;;;;;;;1999.90;999.90;;;8.30;99.90;;;;;;5014586;28;20563;-71
2023/11/21 03:55:14;;;;;;;1999.90;999.90;;;8.40;99.90;;;;;;5013686;28;20177;-70
2023/11/21 03:57:40;;;;;;;1999.90;999.90;;;8.50;99.90;;;;;;5013689;28;20165;-70
2023/11/21 04:00:08;;;;;;;1999.90;999.90;;;8.50;99.90;;;;;;5013576;28;20491;-71
2023/11/21 04:02:34;;;;;;;1999.90;999.90;;;8.40;99.90;;;;;;5013216;28;20186;-71
2023/11/21 04:05:00;;;;;;;1999.90;999.90;;;8.50;99.90;;;;;;5013348;28;20424;-70
2023/11/21 04:07:25;;;;;;;1999.90;999.90;;;8.50;99.90;;;;;;5013455;28;20415;-70
2023/11/21 04:09:51;;;;;;;1999.90;999.90;;;8.60;99.90;;;;;;5013320;28;20699;-70
2023/11/21 04:12:16;;;;;;;1999.90;999.90;;;8.60;99.90;;;;;;5011348;28;20206;-71
2023/11/21 04:14:42;;;;;;;1999.90;999.90;;;8.60;99.90;;;;;;5012470;28;20720;-70
2023/11/21 04:17:07;;;;;;;1999.90;999.90;;;8.60;99.90;;;;;;5015320;28;20212;-71
2023/11/21 04:19:33;;;;;;;1999.90;999.90;;;8.50;99.90;;;;;;5013889;28;20224;-70
2023/11/21 04:21:59;;;;;;;1999.90;999.90;;;8.50;99.90;;;;;;5012719;28;20236;-70
2023/11/21 04:24:24;;;;;;;1999.90;999.90;;;8.40;99.90;;;;;;5011878;28;20197;-71
2023/11/21 04:26:50;;;;;;;1999.90;999.90;;;8.40;99.90;;;;;;5011875;28;20173;-70
2023/11/21 04:29:15;;;;;;;1999.90;999.90;;;8.30;99.90;;;;;;5011902;28;20173;-71
2023/11/21 04:31:41;;;;;;;1999.90;999.90;;;8.30;99.90;;;;;;5162070;23;20232;-71
2023/11/21 04:34:08;;;;;;;1999.90;999.90;;;8.30;99.90;;;;;;5031873;28;20189;-71
2023/11/21 04:36:34;;;;;;;1999.90;999.90;;;8.40;99.90;;;;;;5031772;28;20457;-71
2023/11/21 04:39:00;;;;;;;1999.90;999.90;;;8.40;99.90;;;;;;5031755;28;20596;-70
2023/11/21 04:41:26;;;;;;;1999.90;999.90;;;8.40;99.90;;;;;;5031326;28;20428;-71
2023/11/21 04:43:51;;;;;;;1999.90;999.90;;;8.40;99.90;;;;;;5031640;28;20906;-71
2023/11/21 04:46:17;;;;;;;1999.90;999.90;;;8.30;99.90;;;;;;5031471;28;20247;-70
2023/11/21 04:48:43;;;;;;;1999.90;999.90;;;8.30;99.90;;;;;;5031613;28;20179;-71
2023/11/21 04:51:08;;;;;;;1999.90;999.90;;;8.50;99.90;;;;;;5031339;28;20226;-71
2023/11/21 04:53:34;;;;;;;1999.90;999.90;;;8.30;99.90;;;;;;5031574;28;20466;-71
2023/11/21 04:56:00;;;;;;;1999.90;999.90;;;8.20;99.90;;;;;;5031485;28;20184;-71
2023/11/21 04:58:26;;;;;;;1999.90;999.90;;;8.30;99.90;;;;;;5031305;28;20436;-71
2023/11/21 05:00:51;;;;;;;1999.90;999.90;;;8.40;99.90;;;;;;5031509;28;20273;-71
2023/11/21 05:03:17;;;;;;;1999.90;999.90;;;8.60;99.90;;;;;;5031530;28;20850;-71
2023/11/21 05:05:42;;;;;;;1999.90;999.90;;;8.70;99.90;;;;;;5031240;28;20312;-71
2023/11/21 05:08:08;;;;;;;1999.90;999.90;;;8.70;99.90;;;;;;5031516;28;20180;-71
2023/11/21 05:10:34;;;;;;;1999.90;999.90;;;8.70;99.90;;;;;;5031320;28;20200;-71
2023/11/21 05:12:59;;;;;;;1999.90;999.90;;;8.80;99.90;;;;;;5030745;28;20682;-71
2023/11/21 05:15:25;;;;;;;1999.90;999.90;;;8.80;99.90;;;;;;5030915;28;20182;-71
2023/11/21 05:17:53;;;;;;;1999.90;999.90;;;8.90;99.90;;;;;;5031376;28;20429;-71
2023/11/21 05:20:21;;;;;;;1999.90;999.90;;;8.90;99.90;;;;;;5030804;28;20449;-71
2023/11/21 05:22:49;;;;;;;1999.90;999.90;;;9.00;99.90;;;;;;5032680;28;20416;-71
2023/11/21 05:25:18;;;;;;;1999.90;999.90;;;9.00;99.90;;;;;;5035001;28;20959;-71
2023/11/21 05:27:44;;;;;;;1999.90;999.90;;;9.10;99.90;;;;;;5034917;28;20412;-71
2023/11/21 05:30:12;;;;;;;1999.90;999.90;;;9.00;99.90;;;;;;5034770;28;20419;-71
2023/11/21 05:32:37;;;;;;;1999.90;999.90;;;9.20;99.90;;;;;;5034800;28;20466;-71
2023/11/21 05:35:09;;;;;;;1999.90;999.90;;;9.20;99.90;;;;;;5035440;28;20411;-70
2023/11/21 05:37:35;;;;;;;1999.90;999.90;;;9.20;99.90;;;;;;5036407;28;20183;-70
2023/11/21 05:40:05;;;;;;;1999.90;999.90;;;9.00;99.90;;;;;;5036734;28;20405;-71
2023/11/21 05:42:31;;;;;;;1999.90;999.90;;;9.20;99.90;;;;;;5003972;28;20417;-71
2023/11/21 05:44:59;;;;;;;1999.90;999.90;;;9.20;99.90;;;;;;5035562;28;20501;-71
2023/11/21 05:47:26;;;;;;;1999.90;999.90;;;9.20;99.90;;;;;;5035675;28;20514;-70
2023/11/21 05:49:52;;;;;;;1999.90;999.90;;;9.30;99.90;;;;;;5035783;28;20418;-70
2023/11/21 05:52:18;;;;;;;1999.90;999.90;;;9.30;99.90;;;;;;5035398;28;20460;-70
2023/11/21 05:54:43;;;;;;;1999.90;999.90;;;9.30;99.90;;;;;;5036960;28;20405;-70
2023/11/21 05:57:09;;;;;;;1999.90;999.90;;;9.30;99.90;;;;;;5035708;28;20402;-70
2023/11/21 05:59:34;;;;;;;1999.90;999.90;;;9.30;99.90;;;;;;5036010;28;20168;-70
2023/11/21 06:02:00;;;;;;;1999.90;999.90;;;9.10;99.90;;;;;;5035770;28;20242;-70
2023/11/21 06:04:26;;;;;;;1999.90;999.90;;;9.20;99.90;;;;;;5035075;28;20641;-71
2023/11/21 06:06:52;;;;;;;1999.90;999.90;;;9.10;99.90;;;;;;5034679;28;20615;-71
2023/11/21 06:09:18;;;;;;;1999.90;999.90;;;9.20;99.90;;;;;;5034560;28;20167;-71
2023/11/21 06:11:44;;;;;;;1999.90;999.90;;;9.20;99.90;;;;;;5034235;28;20430;-71
2023/11/21 06:14:10;;;;;;;1999.90;999.90;;;9.20;99.90;;;;;;5034267;28;20288;-71
2023/11/21 06:16:36;;;;;;;1999.90;999.90;;;9.30;99.90;;;;;;5034251;28;20165;-70
2023/11/21 06:19:02;;;;;;;1999.90;999.90;;;9.30;99.90;;;;;;5034322;28;20911;-70
2023/11/21 06:21:27;;;;;;;1999.90;999.90;;;9.30;99.90;;;;;;5034237;28;20189;-71
2023/11/21 06:23:53;;;;;;;1999.90;999.90;;;9.30;99.90;;;;;;5034392;28;20173;-71
2023/11/21 06:26:19;;;;;;;1999.90;999.90;;;9.30;99.90;;;;;;5034086;28;20171;-71
2023/11/21 06:28:45;;;;;;;1999.90;999.90;;;9.40;99.90;;;;;;5034130;28;20167;-71
2023/11/21 06:31:10;;;;;;;1999.90;999.90;;;9.30;99.90;;;;;;5033828;28;20213;-71
2023/11/21 06:33:36;;;;;;;1999.90;999.90;;;9.30;99.90;;;;;;5033330;28;20465;-71
2023/11/21 06:36:06;;;;;;;1999.90;999.90;;;9.20;99.90;;;;;;5033531;28;20171;-70
2023/11/21 06:38:32;;;;;;;1999.90;999.90;;;9.20;99.90;;;;;;5034017;28;20176;-70
2023/11/21 06:40:58;;;;;;;1999.90;999.90;;;9.20;99.90;;;;;;5033726;28;20425;-70
2023/11/21 06:43:24;;;;;;;1999.90;999.90;;;9.20;99.90;;;;;;5034028;28;20437;-71
2023/11/21 06:45:49;;;;;;;1999.90;999.90;;;9.30;99.90;;;;;;5033722;28;20923;-70
2023/11/21 06:48:15;;;;;;;1999.90;999.90;;;9.30;99.90;;;;;;5033780;28;20410;-71
2023/11/21 06:50:41;;;;;;;1999.90;999.90;;;9.30;99.90;;;;;;5033676;28;20193;-70
2023/11/21 06:53:08;;;;;;;1999.90;999.90;;;9.30;99.90;;;;;;5033654;28;20193;-70
2023/11/21 06:55:33;;;;;;;1999.90;999.90;;;9.30;99.90;;;;;;5033364;28;20411;-70
2023/11/21 06:58:00;;;;;;;1999.90;999.90;;;9.30;99.90;;;;;;5033631;28;20401;-70
2023/11/21 07:00:27;;;;;;;1999.90;999.90;;;9.30;99.90;;;;;;5033649;28;20212;-70
2023/11/21 07:02:53;;;;;;;1999.90;999.90;;;9.30;99.90;;;;;;5033559;28;20464;-70
2023/11/21 07:05:21;;;;;;;1999.90;999.90;;;9.20;99.90;;;;;;5033258;28;20425;-70
2023/11/21 07:07:48;;;;;;;1999.90;999.90;;;9.10;99.90;;;;;;5033598;28;20414;-70
2023/11/21 07:10:14;;;;;;;1999.90;999.90;;;9.30;99.90;;;;;;5033111;28;20411;-70
2023/11/21 07:12:40;;;;;;;1999.90;999.90;;;9.20;99.90;;;;;;5033420;28;20499;-70
2023/11/21 07:15:09;;;;;;;1999.90;999.90;;;9.20;99.90;;;;;;5033163;28;20402;-70
2023/11/21 07:17:38;;;;;;;1999.90;999.90;;;9.20;99.90;;;;;;5033719;28;20411;-70
2023/11/21 07:20:04;;;;;;;1999.90;999.90;;;9.40;99.90;;;;;;5034074;28;20406;-71
2023/11/21 07:22:29;;;;;;;1999.90;999.90;;;9.20;99.90;;;;;;5034113;28;20503;-70
2023/11/21 07:24:58;;;;;;;1999.90;999.90;;;9.20;99.90;;;;;;5033601;28;20445;-70
2023/11/21 07:27:24;;;;;;;1999.90;999.90;;;9.30;99.90;;;;;;5034037;28;20167;-70
2023/11/21 07:29:49;;;;;;;1999.90;999.90;;;9.30;99.90;;;;;;5033846;28;20446;-70
2023/11/21 07:32:15;;;;;;;1999.90;999.90;;;9.40;99.90;;;;;;5033430;28;20213;-70
2023/11/21 07:34:41;;;;;;;1999.90;999.90;;;9.40;99.90;;;;;;5033585;28;20174;-70
2023/11/21 07:37:08;;;;;;;1999.90;999.90;;;9.50;99.90;;;;;;5033553;28;20902;-70
2023/11/21 07:39:35;;;;;;;1999.90;999.90;;;9.50;99.90;;;;;;5033302;28;20175;-70
2023/11/21 07:42:02;;;;;;;1999.90;999.90;;;9.50;99.90;;;;;;5033631;28;20484;-70
2023/11/21 07:44:28;;;;;;;1999.90;999.90;;;9.50;99.90;;;;;;5033125;28;20412;-70
2023/11/21 07:46:57;;;;;;;1999.90;999.90;;;9.50;99.90;;;;;;5033194;28;20982;-70
2023/11/21 07:49:23;;;;;;;1999.90;999.90;;;9.60;99.90;;;;;;5033364;28;20922;-70
2023/11/21 07:51:49;;;;;;;1999.90;999.90;;;9.60;99.90;;;;;;5033377;28;20869;-70
2023/11/21 07:54:15;;;;;;;1999.90;999.90;;;9.50;99.90;;;;;;5033444;28;20536;-70
2023/11/21 07:56:42;;;;;;;1999.90;999.90;;;9.60;99.90;;;;;;5033089;28;20198;-70
2023/11/21 07:59:07;;;;;;;1999.90;999.90;;;9.60;99.90;;;;;;5033254;28;20417;-70
2023/11/21 08:01:33;;;;;;;1999.90;999.90;;;9.60;99.90;;;;;;5032943;28;20462;-70
2023/11/21 08:04:03;;;;;;;1999.90;999.90;;;9.70;99.90;;;;;;5033137;28;20221;-70
2023/11/21 08:06:32;;;;;;;1999.90;999.90;;;9.70;99.90;;;;;;5032761;28;20183;-70
2023/11/21 08:08:58;;;;;;;1999.90;999.90;;;9.80;99.90;;;;;;5033023;28;20459;-70
2023/11/21 08:11:24;;;;;;;1999.90;999.90;;;9.70;99.90;;;;;;5033148;28;20437;-70
2023/11/21 08:13:50;;;;;;;1999.90;999.90;;;9.80;99.90;;;;;;5032798;28;20453;-70
2023/11/21 08:16:16;;;;;;;1999.90;999.90;;;9.70;99.90;;;;;;5032822;28;20412;-70
2023/11/21 08:18:42;;;;;;;1999.90;999.90;;;9.60;99.90;;;;;;5032771;28;20540;-70
2023/11/21 08:21:07;;;;;;;1999.90;999.90;;;9.60;99.90;;;;;;5032585;28;20425;-70
2023/11/21 08:23:34;;;;;;;1999.90;999.90;;;9.60;99.90;;;;;;5032718;28;20167;-70
2023/11/21 08:26:00;;;;;;;1999.90;999.90;;;9.60;99.90;;;;;;5032621;28;20720;-70
2023/11/21 08:28:26;;;;;;;1999.90;999.90;;;9.60;99.90;;;;;;5032797;28;20936;-70
2023/11/21 08:30:52;;;;;;;1999.90;999.90;;;9.70;99.90;;;;;;5031442;28;20549;-70
2023/11/21 08:33:18;;;;;;;1999.90;999.90;;;9.70;99.90;;;;;;5025839;28;20678;-70
2023/11/21 08:35:45;;;;;;;1999.90;999.90;;;9.80;99.90;;;;;;5027532;28;20410;-71
2023/11/21 08:38:12;;;;;;;1999.90;999.90;;;9.80;99.90;;;;;;5032443;28;20654;-70
2023/11/21 08:40:38;;;;;;;1999.90;999.90;;;9.80;99.90;;;;;;5032555;28;20436;-70
2023/11/21 08:43:06;;;;;;;1999.90;999.90;;;9.90;99.90;;;;;;5032682;28;20426;-70
2023/11/21 08:45:34;;;;;;;1999.90;999.90;;;9.90;99.90;;;;;;5031358;28;20434;-70
2023/11/21 08:48:00;;;;;;;1999.90;999.90;;;9.90;99.90;;;;;;5032048;28;20422;-70
2023/11/21 08:50:25;;;;;;;1999.90;999.90;;;10.00;99.90;;;;;;5032463;28;20913;-70
2023/11/21 08:52:51;;;;;;;1999.90;999.90;;;10.00;99.90;;;;;;5032400;28;20463;-70
2023/11/21 08:55:17;;;;;;;1999.90;999.90;;;10.10;99.90;;;;;;5031939;28;20270;-70
2023/11/21 08:57:44;;;;;;;1999.90;999.90;;;10.10;99.90;;;;;;5028233;28;20225;-70
2023/11/21 09:00:11;;;;;;;1999.90;999.90;;;10.10;99.90;;;;;;5035686;28;20665;-70
2023/11/21 09:02:38;;;;;;;1999.90;999.90;;;10.10;99.90;;;;;;5035662;28;20400;-70
2023/11/21 09:05:05;;;;;;;1999.90;999.90;;;10.10;99.90;;;;;;5035818;28;20422;-70
2023/11/21 09:07:31;;;;;;;1999.90;999.90;;;10.20;99.90;;;;;;5035756;28;20476;-70
2023/11/21 09:09:56;;;;;;;1999.90;999.90;;;10.30;99.90;;;;;;5035597;28;20426;-70
2023/11/21 09:12:22;;;;;;;1999.90;999.90;;;10.40;99.90;;;;;;5035406;28;20257;-71
2023/11/21 09:14:49;;;;;;;1999.90;999.90;;;10.40;99.90;;;;;;5035391;28;20611;-70
2023/11/21 09:17:15;;;;;;;1999.90;999.90;;;10.40;99.90;;;;;;5035507;28;20163;-70
2023/11/21 09:19:41;;;;;;;1999.90;999.90;;;10.50;99.90;;;;;;5035433;28;21051;-70
2023/11/21 09:22:07;;;;;;;1999.90;999.90;;;10.40;99.90;;;;;;5035441;28;20648;-70
2023/11/21 09:24:35;;;;;;;1999.90;999.90;;;10.50;99.90;;;;;;5035221;28;20531;-70
2023/11/21 09:27:01;;;;;;;1999.90;999.90;;;10.50;99.90;;;;;;5035151;28;20191;-70
2023/11/21 09:29:27;;;;;;;1999.90;999.90;;;10.50;99.90;;;;;;5035068;28;20439;-70
2023/11/21 09:31:54;;;;;;;1999.90;999.90;;;10.50;99.90;;;;;;5035154;28;20226;-70
2023/11/21 09:34:20;;;;;;;1999.90;999.90;;;10.50;99.90;;;;;;5035350;28;20407;-70
2023/11/21 09:36:46;;;;;;;1999.90;999.90;;;10.50;99.90;;;;;;5035018;28;20402;-70
2023/11/21 09:39:14;;;;;;;1999.90;999.90;;;10.40;99.90;;;;;;5035118;28;20780;-70
2023/11/21 09:42:17;;;;;;;1999.90;999.90;;;10.30;99.90;;;;;;5034960;28;20421;-70
2023/11/21 09:44:58;;;;;;;1999.90;999.90;;;10.20;99.90;;;;;;5032796;28;20956;-70
2023/11/21 09:47:24;;;;;;;1999.90;999.90;;;10.30;99.90;;;;;;5015144;28;20410;-70
2023/11/21 09:49:51;;;;;;;1999.90;999.90;;;10.30;99.90;;;;;;5015018;28;20403;-70
2023/11/21 09:52:26;;;;;;;1999.90;999.90;;;10.30;99.90;;;;;;5014883;28;20215;-70
2023/11/21 09:54:53;;;;;;;1999.90;999.90;;;10.40;99.90;;;;;;5019826;28;20835;-70
2023/11/21 09:57:23;;;;;;;1999.90;999.90;;;10.60;99.90;;;;;;5033589;28;20419;-70
2023/11/21 09:59:59;;;;;;;1999.90;999.90;;;10.70;99.90;;;;;;5028373;28;20433;-70
2023/11/21 10:02:32;;;;;;;1999.90;999.90;;;10.80;99.90;;;;;;5029859;28;20472;-70
2023/11/21 10:05:00;;;;;;;1999.90;999.90;;;10.90;99.90;;;;;;5034339;28;20933;-70
2023/11/21 10:07:28;;;;;;;1999.90;999.90;;;11.00;99.90;;;;;;5034244;28;20418;-70
2023/11/21 10:09:55;;;;;;;1999.90;999.90;;;11.20;99.90;;;;;;5034336;28;20485;-70
2023/11/21 10:12:21;;;;;;;1999.90;999.90;;;11.20;99.90;;;;;;5027697;28;20889;-70
2023/11/21 10:14:49;;;;;;;1999.90;999.90;;;11.20;99.90;;;;;;5033319;28;20418;-70
2023/11/21 10:17:18;;;;;;;1999.90;999.90;;;11.20;99.90;;;;;;5032838;28;20512;-70
2023/11/21 10:19:47;;;;;;;1999.90;999.90;;;11.20;99.90;;;;;;5033094;28;20435;-70
2023/11/21 10:22:14;;;;;;;1999.90;999.90;;;11.30;99.90;;;;;;5035292;28;20942;-70
2023/11/21 10:24:40;;;;;;;1999.90;999.90;;;11.30;99.90;;;;;;5035619;28;20433;-70
2023/11/21 10:27:06;;;;;;;1999.90;999.90;;;11.30;99.90;;;;;;5036150;28;20410;-70
2023/11/21 10:29:35;;;;;;;1999.90;999.90;;;11.40;99.90;;;;;;5035619;28;20287;-70
2023/11/21 10:32:02;;;;;;;1999.90;999.90;;;11.20;99.90;;;;;;5035417;28;20211;-70
2023/11/21 10:34:27;;;;;;;1999.90;999.90;;;11.20;99.90;;;;;;5035384;28;20446;-70
2023/11/21 10:36:53;;;;;;;1999.90;999.90;;;11.00;99.90;;;;;;5036034;28;20518;-70
2023/11/21 10:39:23;;;;;;;1999.90;999.90;;;10.90;99.90;;;;;;5028698;28;20187;-70
2023/11/21 10:41:49;;;;;;;1999.90;999.90;;;10.90;99.90;;;;;;5035560;28;20794;-70
2023/11/21 10:44:23;;;;;;;1999.90;999.90;;;10.90;99.90;;;;;;5036035;28;20917;-70
2023/11/21 10:46:51;;;;;;;1999.90;999.90;;;10.80;99.90;;;;;;5035622;28;20408;-70
2023/11/21 10:49:24;;;;;;;1999.90;999.90;;;10.80;99.90;;;;;;5035937;28;20441;-70
2023/11/21 10:51:53;;;;;;;1999.90;999.90;;;10.90;99.90;;;;;;5035222;28;20441;-70
2023/11/21 10:54:25;;;;;;;1999.90;999.90;;;10.80;99.90;;;;;;5035511;28;20978;-70
2023/11/21 10:56:56;;;;;;;1999.90;999.90;;;10.70;99.90;;;;;;5035657;28;20411;-70
2023/11/21 10:59:25;;;;;;;1999.90;999.90;;;10.70;99.90;;;;;;5035807;28;20403;-70
2023/11/21 11:01:52;;;;;;;1999.90;999.90;;;10.60;99.90;;;;;;5035513;28;20488;-70
2023/11/21 11:04:24;;;;;;;1999.90;999.90;;;10.60;99.90;;;;;;5035478;28;20755;-70
2023/11/21 11:07:03;;;;;;;1999.90;999.90;;;10.60;99.90;;;;;;5035891;28;20465;-70
2023/11/21 11:09:30;;;;;;;1999.90;999.90;;;10.60;99.90;;;;;;5035382;28;20513;-70
2023/11/21 11:11:56;;;;;;;1999.90;999.90;;;10.50;99.90;;;;;;5035408;28;20891;-70
2023/11/21 11:14:25;;;;;;;1999.90;999.90;;;10.40;99.90;;;;;;5017275;28;20536;-70
2023/11/21 11:16:55;;;;;;;1999.90;999.90;;;10.40;99.90;;;;;;5035713;28;20173;-70
2023/11/21 11:19:21;;;;;;;1999.90;999.90;;;10.40;99.90;;;;;;5035244;28;20406;-70
2023/11/21 11:22:19;;;;;;;1999.90;999.90;;;10.40;99.90;;;;;;5034655;28;20433;-70
2023/11/21 11:24:59;;;;;;;1999.90;999.90;;;10.40;99.90;;;;;;5017783;28;20418;-70
2023/11/21 11:28:08;;;;;;;1999.90;999.90;;;10.40;99.90;;;;;;5033165;28;20419;-70
2023/11/21 11:31:08;;;;;;;1999.90;999.90;;;10.50;99.90;;;;;;4991789;28;20521;-70
2023/11/21 11:33:43;;;;;;;1999.90;999.90;;;10.50;99.90;;;;;;5002147;28;20501;-70
2023/11/21 11:36:27;;;;;;;1999.90;999.90;;;10.40;99.90;;;;;;5033088;28;20945;-70
2023/11/21 11:38:55;;;;;;;1999.90;999.90;;;10.30;99.90;;;;;;5032589;28;20496;-70
2023/11/21 11:41:32;;;;;;;1999.90;999.90;;;10.30;99.90;;;;;;5032641;28;20492;-70
2023/11/21 11:43:58;;;;;;;1999.90;999.90;;;10.30;99.90;;;;;;5032635;28;20434;-70
2023/11/21 11:46:42;;;;;;;1999.90;999.90;;;10.30;99.90;;;;;;5032606;28;20417;-70
2023/11/21 11:49:08;;;;;;;1999.90;999.90;;;10.30;99.90;;;;;;5032540;28;20841;-70
2023/11/21 11:51:35;;;;;;;1999.90;999.90;;;10.20;99.90;;;;;;5032391;28;20442;-70
2023/11/21 11:54:01;;;;;;;1999.90;999.90;;;10.30;99.90;;;;;;5032615;28;20633;-70
2023/11/21 11:56:33;;;;;;;1999.90;999.90;;;10.30;99.90;;;;;;5032343;28;20419;-70
2023/11/21 11:59:06;;;;;;;1999.90;999.90;;;10.30;99.90;;;;;;5032459;28;20978;-70
2023/11/21 12:01:33;;;;;;;1999.90;999.90;;;10.40;99.90;;;;;;5032314;28;20532;-70
2023/11/21 12:04:34;;;;;;;1999.90;999.90;;;10.40;99.90;;;;;;5032348;28;20510;-70
2023/11/21 12:07:03;;;;;;;1999.90;999.90;;;10.60;99.90;;;;;;5032447;28;20417;-70